Time;durP1;ratioP1;P1;durP2;ratioP2;P2;SDS_P1;SDS_P2;PMS_P1;PMS_P2;Temp;Humidity;BMP_temperature;BMP_pressure;BME280_temperature;BME280_humidity;BME280_pressure;Samples;Min_cycle;Max_cycle;Signal;HPM_P1;HPM_P2
2022/09/19 00:01:52;;;;;;;7.03;2.30;;;18.70;45.60;;;;;;5053141;28;20583;-73
2022/09/19 00:04:22;;;;;;;8.33;2.20;;;18.60;46.10;;;;;;5031574;28;20184;-73
2022/09/19 00:06:53;;;;;;;11.03;1.90;;;18.60;46.10;;;;;;5023704;28;20317;-73
2022/09/19 00:09:25;;;;;;;7.83;2.30;;;18.70;46.20;;;;;;5018170;28;20199;-73
2022/09/19 00:11:53;;;;;;;9.73;2.33;;;18.60;46.40;;;;;;5026671;28;20219;-72
2022/09/19 00:14:27;;;;;;;10.27;2.33;;;18.60;47.10;;;;;;5030294;28;20180;-73
2022/09/19 00:17:01;;;;;;;4.67;1.67;;;18.80;46.30;;;;;;5015826;28;20180;-71
2022/09/19 00:19:29;;;;;;;11.10;2.47;;;18.80;44.30;;;;;;5029873;28;20172;-71
2022/09/19 00:22:02;;;;;;;8.60;2.57;;;18.80;42.90;;;;;;5025565;28;20192;-72
2022/09/19 00:24:50;;;;;;;8.97;3.10;;;18.80;43.50;;;;;;5018066;28;20183;-71
2022/09/19 00:27:23;;;;;;;7.93;2.17;;;18.80;43.40;;;;;;5032656;28;20176;-71
2022/09/19 00:29:52;;;;;;;8.70;3.77;;;18.70;43.10;;;;;;5031888;28;20184;-71
2022/09/19 00:32:21;;;;;;;5.47;1.87;;;18.80;44.00;;;;;;5032464;28;20231;-73
2022/09/19 00:34:52;;;;;;;4.23;1.80;;;19.00;42.20;;;;;;5032079;28;20169;-72
2022/09/19 00:37:21;;;;;;;7.30;1.97;;;19.30;41.80;;;;;;5032676;28;20250;-72
2022/09/19 00:39:49;;;;;;;8.43;2.37;;;19.60;42.00;;;;;;5032297;28;20169;-73
2022/09/19 00:42:19;;;;;;;8.37;2.10;;;19.70;41.90;;;;;;5032203;28;20385;-73
2022/09/19 00:45:00;;;;;;;3.87;1.60;;;19.90;41.40;;;;;;5032307;28;20176;-72
2022/09/19 00:47:45;;;;;;;6.87;2.33;;;20.00;40.10;;;;;;5032503;28;20176;-73
2022/09/19 00:50:26;;;;;;;3.57;1.23;;;20.00;39.10;;;;;;5032321;28;20176;-74
2022/09/19 00:53:00;;;;;;;5.53;1.50;;;20.00;37.30;;;;;;5031110;28;20209;-72
2022/09/19 00:55:28;;;;;;;4.73;1.40;;;20.20;37.30;;;;;;5032653;28;20177;-76
2022/09/19 00:58:07;;;;;;;3.20;1.23;;;20.00;36.30;;;;;;5024278;28;20181;-72
2022/09/19 01:00:35;;;;;;;4.53;1.50;;;20.20;36.50;;;;;;5030489;28;20247;-72
2022/09/19 01:03:06;;;;;;;6.10;1.53;;;20.30;36.10;;;;;;5030199;28;20175;-75
2022/09/19 01:06:08;;;;;;;4.73;1.43;;;20.50;35.20;;;;;;5029781;28;20181;-73
2022/09/19 01:08:39;;;;;;;4.43;1.50;;;20.60;35.60;;;;;;5030137;28;20197;-73
2022/09/19 01:11:21;;;;;;;4.63;1.30;;;20.60;35.90;;;;;;5030906;28;20181;-73
2022/09/19 01:14:14;;;;;;;2.57;1.00;;;20.40;35.90;;;;;;5032336;28;20192;-72
2022/09/19 01:16:51;;;;;;;5.20;1.43;;;20.80;36.20;;;;;;5030567;28;20727;-73
2022/09/19 01:20:00;;;;;;;5.03;1.20;;;21.10;35.50;;;;;;5031588;28;20187;-73
2022/09/19 01:22:43;;;;;;;4.07;1.50;;;21.30;35.10;;;;;;5030419;28;20185;-72
2022/09/19 01:25:16;;;;;;;2.03;1.10;;;21.30;34.80;;;;;;5031788;28;20180;-72
2022/09/19 01:28:20;;;;;;;2.60;1.20;;;21.50;35.00;;;;;;5050660;28;20190;-74
2022/09/19 01:31:21;;;;;;;3.73;1.10;;;21.40;34.20;;;;;;4957734;28;20277;-73
2022/09/19 01:34:04;;;;;;;3.40;1.00;;;20.90;35.80;;;;;;5027596;28;20209;-74
2022/09/19 01:36:49;;;;;;;4.30;1.20;;;20.50;36.20;;;;;;5034136;28;20194;-72
2022/09/19 01:39:23;;;;;;;3.43;1.00;;;20.40;36.70;;;;;;5033752;28;20180;-75
2022/09/19 01:41:53;;;;;;;4.30;1.20;;;20.50;35.70;;;;;;5034483;28;20180;-72
2022/09/19 01:44:23;;;;;;;3.50;1.10;;;20.70;36.30;;;;;;5035562;28;20179;-75
2022/09/19 01:47:27;;;;;;;3.43;1.00;;;21.30;35.60;;;;;;5022635;28;20524;-73
2022/09/19 01:50:10;;;;;;;5.20;0.90;;;21.60;34.60;;;;;;5029940;28;20259;-71
2022/09/19 01:52:56;;;;;;;2.60;1.00;;;21.90;33.90;;;;;;5029846;28;20308;-73
2022/09/19 01:55:41;;;;;;;3.83;1.10;;;21.70;34.00;;;;;;5032757;28;20228;-73
2022/09/19 01:58:35;;;;;;;2.63;1.03;;;21.80;34.30;;;;;;5035578;28;20176;-73
2022/09/19 02:01:09;;;;;;;3.83;1.10;;;21.60;34.50;;;;;;5035397;28;20187;-73
2022/09/19 02:03:57;;;;;;;2.57;1.13;;;21.00;35.20;;;;;;5034720;28;20188;-73
2022/09/19 02:06:58;;;;;;;4.60;1.90;;;21.00;35.60;;;;;;5030373;28;20573;-74
2022/09/19 02:09:53;;;;;;;9.60;1.37;;;21.30;35.00;;;;;;5027622;28;20233;-73
2022/09/19 02:12:23;;;;;;;5.57;2.30;;;21.20;34.60;;;;;;5032401;28;20319;-73
2022/09/19 02:14:54;;;;;;;6.23;1.50;;;20.80;36.10;;;;;;5031812;28;20275;-78
2022/09/19 02:17:31;;;;;;;2.87;1.30;;;20.80;35.80;;;;;;5032924;28;20174;-72
2022/09/19 02:20:18;;;;;;;4.80;1.37;;;20.30;36.60;;;;;;5034674;28;20180;-73
2022/09/19 02:22:53;;;;;;;6.40;2.43;;;20.80;36.30;;;;;;5035016;28;20579;-73
2022/09/19 02:25:32;;;;;;;5.67;1.40;;;21.10;35.50;;;;;;5034997;28;20176;-72
2022/09/19 02:28:13;;;;;;;3.37;1.10;;;20.90;36.10;;;;;;5034721;28;20185;-73
2022/09/19 02:30:42;;;;;;;3.87;1.30;;;21.20;36.10;;;;;;5034407;28;20189;-72
2022/09/19 02:33:11;;;;;;;3.40;1.17;;;21.80;34.90;;;;;;5034803;28;20212;-74
2022/09/19 02:35:50;;;;;;;7.20;1.40;;;21.50;34.50;;;;;;5034197;28;20177;-74
2022/09/19 02:38:33;;;;;;;3.60;1.43;;;21.80;34.70;;;;;;5034484;28;20693;-72
2022/09/19 02:41:21;;;;;;;3.93;1.00;;;22.40;33.40;;;;;;5034129;28;20635;-72
2022/09/19 02:44:00;;;;;;;5.07;1.20;;;21.80;33.80;;;;;;5034480;28;20717;-72
2022/09/19 02:46:42;;;;;;;2.43;0.87;;;22.20;34.00;;;;;;5034471;28;20317;-72
2022/09/19 02:49:14;;;;;;;2.57;1.20;;;22.40;33.50;;;;;;5034125;28;20177;-73
2022/09/19 02:52:04;;;;;;;3.67;1.27;;;23.00;32.90;;;;;;5034447;28;20227;-72
2022/09/19 02:54:34;;;;;;;5.73;1.57;;;23.70;32.10;;;;;;5032021;28;20206;-72
2022/09/19 02:57:07;;;;;;;3.10;1.00;;;23.70;32.20;;;;;;5034261;28;20280;-72
2022/09/19 02:59:39;;;;;;;6.20;1.57;;;23.90;31.90;;;;;;5031877;28;20280;-71
2022/09/19 03:02:21;;;;;;;3.27;1.70;;;24.30;30.80;;;;;;5033886;28;20189;-71
2022/09/19 03:04:55;;;;;;;3.50;1.07;;;23.80;31.50;;;;;;5033467;28;20177;-73
2022/09/19 03:07:36;;;;;;;3.57;1.10;;;23.80;31.50;;;;;;5033588;28;20232;-72
2022/09/19 03:10:17;;;;;;;3.43;1.10;;;23.30;32.10;;;;;;5034040;28;20195;-72
2022/09/19 03:12:57;;;;;;;4.97;1.20;;;23.20;32.40;;;;;;5033623;28;20212;-74
2022/09/19 03:15:36;;;;;;;4.87;1.23;;;22.80;32.40;;;;;;5026120;28;20181;-73
2022/09/19 03:18:14;;;;;;;7.57;0.97;;;23.50;31.70;;;;;;5033703;28;20207;-73
2022/09/19 03:20:49;;;;;;;5.33;1.17;;;23.90;31.80;;;;;;5046690;28;20587;-72
2022/09/19 03:23:23;;;;;;;3.77;1.10;;;24.30;30.40;;;;;;5033589;28;20188;-72
2022/09/19 03:25:50;;;;;;;2.57;0.83;;;24.70;29.60;;;;;;5033582;28;20181;-73
2022/09/19 03:28:21;;;;;;;4.30;1.00;;;24.40;30.20;;;;;;5033237;28;20177;-74
2022/09/19 03:30:49;;;;;;;4.60;0.90;;;23.80;30.30;;;;;;5033237;28;20176;-73
2022/09/19 03:33:17;;;;;;;6.23;1.57;;;24.20;30.70;;;;;;5033469;28;20212;-73
2022/09/19 03:35:50;;;;;;;2.47;0.90;;;23.50;30.50;;;;;;5033254;28;20212;-74
2022/09/19 03:38:18;;;;;;;2.80;0.90;;;24.00;30.00;;;;;;5033151;28;20177;-74
2022/09/19 03:40:45;;;;;;;5.03;1.20;;;24.60;29.70;;;;;;5031738;28;20591;-74
2022/09/19 03:43:21;;;;;;;3.33;0.90;;;24.90;28.60;;;;;;5032937;28;20219;-72
2022/09/19 03:45:48;;;;;;;3.07;0.83;;;24.60;28.80;;;;;;5033086;28;20207;-72
2022/09/19 03:48:16;;;;;;;2.40;0.77;;;24.20;30.10;;;;;;5030262;28;20277;-73
2022/09/19 03:50:43;;;;;;;2.17;0.90;;;24.20;29.60;;;;;;5020414;28;20180;-73
2022/09/19 03:53:11;;;;;;;2.80;0.90;;;25.10;28.70;;;;;;5032740;28;20304;-71
2022/09/19 03:55:40;;;;;;;1.63;0.70;;;26.10;27.00;;;;;;5033041;28;20188;-72
2022/09/19 03:58:10;;;;;;;1.73;0.80;;;25.70;27.20;;;;;;5033122;28;20183;-72
2022/09/19 04:00:38;;;;;;;3.17;0.87;;;24.50;28.40;;;;;;5033122;28;20176;-72
2022/09/19 04:03:05;;;;;;;4.13;0.83;;;23.80;29.30;;;;;;5033164;28;20275;-73
2022/09/19 04:05:32;;;;;;;4.90;0.90;;;22.90;30.80;;;;;;5032558;28;20238;-75
2022/09/19 04:08:00;;;;;;;3.07;0.80;;;22.70;31.80;;;;;;5024911;28;20185;-71
2022/09/19 04:10:28;;;;;;;4.37;1.10;;;22.40;32.10;;;;;;5027656;28;20199;-71
2022/09/19 04:12:56;;;;;;;2.53;0.90;;;23.10;30.90;;;;;;5031815;28;20217;-72
2022/09/19 04:15:23;;;;;;;4.40;1.07;;;23.40;30.40;;;;;;5032463;28;20169;-71
2022/09/19 04:17:50;;;;;;;2.13;0.70;;;23.50;29.20;;;;;;5031896;28;20200;-71
2022/09/19 04:20:18;;;;;;;1.37;0.70;;;24.10;28.60;;;;;;5032258;28;20661;-74
2022/09/19 04:22:45;;;;;;;1.77;0.60;;;24.60;27.80;;;;;;5032484;28;20271;-76
2022/09/19 04:25:15;;;;;;;4.73;1.00;;;23.50;28.90;;;;;;5033098;28;20181;-74
2022/09/19 04:27:45;;;;;;;3.43;0.80;;;22.80;30.50;;;;;;5033232;28;20177;-73
2022/09/19 04:30:14;;;;;;;2.00;0.80;;;23.40;29.30;;;;;;5032816;28;20180;-73
2022/09/19 04:32:54;;;;;;;1.37;0.70;;;24.20;28.20;;;;;;5032616;28;20609;-73
2022/09/19 04:35:22;;;;;;;3.90;0.90;;;24.30;27.90;;;;;;5032462;28;20175;-73
2022/09/19 04:37:50;;;;;;;4.03;0.77;;;25.00;27.30;;;;;;5028199;28;20292;-75
2022/09/19 04:40:18;;;;;;;3.13;0.70;;;24.70;27.50;;;;;;5032429;28;20598;-73
2022/09/19 04:42:46;;;;;;;1.73;0.77;;;23.80;28.00;;;;;;5030683;28;20811;-73
2022/09/19 04:45:20;;;;;;;1.53;0.80;;;24.20;28.10;;;;;;5031953;28;20181;-75
2022/09/19 04:47:48;;;;;;;4.10;0.70;;;23.90;28.60;;;;;;5032153;28;20180;-73
2022/09/19 04:50:17;;;;;;;2.97;0.90;;;23.00;29.80;;;;;;5031631;28;20192;-75
2022/09/19 04:52:44;;;;;;;3.13;0.80;;;22.70;30.00;;;;;;5031703;28;20216;-73
2022/09/19 04:55:12;;;;;;;1.40;0.53;;;23.90;29.30;;;;;;5031842;28;20181;-73
2022/09/19 04:57:39;;;;;;;3.13;0.70;;;25.20;27.40;;;;;;5031580;28;20724;-73
2022/09/19 05:00:07;;;;;;;2.50;0.97;;;25.00;27.50;;;;;;5031863;28;20238;-73
2022/09/19 05:02:36;;;;;;;2.50;0.73;;;24.40;27.70;;;;;;5031746;28;20597;-74
2022/09/19 05:05:06;;;;;;;0.87;0.53;;;23.70;28.00;;;;;;5035101;28;20211;-73
2022/09/19 05:07:34;;;;;;;1.47;0.57;;;23.10;29.00;;;;;;5027208;28;20578;-74
2022/09/19 05:10:02;;;;;;;2.07;0.83;;;22.90;29.30;;;;;;5035683;28;20184;-74
2022/09/19 05:12:30;;;;;;;0.97;0.60;;;23.10;29.40;;;;;;5036153;28;20236;-73
2022/09/19 05:14:57;;;;;;;1.40;0.70;;;23.70;28.10;;;;;;5036124;28;20177;-75
2022/09/19 05:17:25;;;;;;;2.70;0.80;;;25.40;24.90;;;;;;5035867;28;20208;-74
2022/09/19 05:19:53;;;;;;;1.50;0.50;;;26.40;24.20;;;;;;5034583;28;20266;-73
2022/09/19 05:22:20;;;;;;;0.93;0.60;;;27.20;22.80;;;;;;5036213;28;20172;-74
2022/09/19 05:24:48;;;;;;;2.10;0.63;;;27.60;21.90;;;;;;5035951;28;20176;-75
2022/09/19 05:27:16;;;;;;;2.67;0.60;;;28.10;22.60;;;;;;5035497;28;20200;-73
2022/09/19 05:29:43;;;;;;;1.70;0.70;;;28.90;21.30;;;;;;5035810;28;20744;-73
2022/09/19 05:32:10;;;;;;;2.37;0.77;;;28.00;23.10;;;;;;5035839;28;20216;-72
2022/09/19 05:34:37;;;;;;;3.47;1.03;;;27.50;27.30;;;;;;5033164;28;20180;-74
2022/09/19 05:37:05;;;;;;;3.37;0.80;;;27.60;27.90;;;;;;5035406;28;20189;-72
2022/09/19 05:39:32;;;;;;;3.47;0.90;;;27.40;28.50;;;;;;5034779;28;20196;-73
2022/09/19 05:42:01;;;;;;;6.60;1.20;;;27.20;29.40;;;;;;5035371;28;20196;-72
2022/09/19 05:44:29;;;;;;;3.17;1.13;;;25.50;32.00;;;;;;5035200;28;20197;-73
2022/09/19 05:46:57;;;;;;;2.53;0.87;;;24.50;33.60;;;;;;5035334;28;20210;-72
2022/09/19 05:49:24;;;;;;;3.63;0.67;;;24.10;33.90;;;;;;5035080;28;20185;-72
2022/09/19 05:53:51;;;;;;;6.00;0.77;;;24.00;33.60;;;;;;5035283;28;20396;-70
2022/09/19 05:54:43;;;;;;;5.67;1.03;;;24.20;32.90;;;;;;5035891;28;20258;-72
2022/09/19 05:57:11;;;;;;;1.77;0.60;;;24.80;32.70;;;;;;5034216;28;20651;-72
2022/09/19 05:59:39;;;;;;;3.03;0.97;;;23.80;34.20;;;;;;5034495;28;20203;-71
2022/09/19 06:02:09;;;;;;;3.63;0.73;;;24.70;32.80;;;;;;5034494;28;20181;-72
2022/09/19 06:04:36;;;;;;;5.93;1.17;;;24.80;32.50;;;;;;5034052;28;20448;-72
2022/09/19 06:07:04;;;;;;;1.53;0.73;;;24.10;32.90;;;;;;5033217;28;20228;-73
2022/09/19 06:09:32;;;;;;;2.17;0.90;;;24.60;32.00;;;;;;5027458;28;20185;-72
2022/09/19 06:11:59;;;;;;;3.47;1.00;;;24.70;31.50;;;;;;5030336;28;20212;-73
2022/09/19 06:14:27;;;;;;;4.17;0.87;;;24.60;31.50;;;;;;5032319;28;20185;-72
2022/09/19 06:16:54;;;;;;;2.07;0.73;;;24.00;32.30;;;;;;5030854;28;20279;-74
2022/09/19 06:19:22;;;;;;;6.17;1.00;;;24.30;32.20;;;;;;5024517;28;20189;-73
2022/09/19 06:21:50;;;;;;;1.23;0.60;;;23.80;32.40;;;;;;5034130;28;20517;-73
2022/09/19 06:24:17;;;;;;;2.50;0.70;;;23.40;32.60;;;;;;5035094;28;20234;-72
2022/09/19 06:26:44;;;;;;;1.37;0.73;;;24.00;31.80;;;;;;5030272;28;20192;-73
2022/09/19 06:29:12;;;;;;;2.80;0.67;;;24.30;32.00;;;;;;5033013;28;20184;-72
2022/09/19 06:31:39;;;;;;;1.47;0.70;;;24.30;31.60;;;;;;5033096;28;20247;-73
2022/09/19 06:34:07;;;;;;;1.73;1.10;;;24.60;30.90;;;;;;5034710;28;20232;-73
2022/09/19 06:36:34;;;;;;;2.60;1.03;;;23.90;32.40;;;;;;5033663;28;20209;-75
2022/09/19 06:39:01;;;;;;;2.87;0.90;;;23.90;32.40;;;;;;5030080;28;20181;-74
2022/09/19 06:41:30;;;;;;;2.87;0.97;;;23.30;32.50;;;;;;5031597;28;20208;-72
2022/09/19 06:43:58;;;;;;;1.43;0.80;;;22.60;33.10;;;;;;5030602;28;20657;-72
2022/09/19 06:46:25;;;;;;;1.93;0.73;;;22.80;33.10;;;;;;5033966;28;20169;-74
2022/09/19 06:48:52;;;;;;;2.43;0.80;;;23.10;32.50;;;;;;5034038;28;20189;-74
2022/09/19 06:51:20;;;;;;;4.57;0.93;;;23.60;31.60;;;;;;5033686;28;20207;-74
2022/09/19 06:53:48;;;;;;;1.70;0.63;;;23.80;31.20;;;;;;5034343;28;20234;-73
2022/09/19 06:56:15;;;;;;;3.50;0.80;;;23.30;32.00;;;;;;5033572;28;20180;-76
2022/09/19 06:58:42;;;;;;;3.30;0.97;;;23.00;33.30;;;;;;5033163;28;20177;-73
2022/09/19 07:01:10;;;;;;;2.77;0.90;;;21.80;35.60;;;;;;5032073;28;20177;-75
2022/09/19 07:03:39;;;;;;;4.73;0.80;;;22.20;35.50;;;;;;5033517;28;20187;-73
2022/09/19 07:06:06;;;;;;;3.17;0.97;;;22.40;35.20;;;;;;5030572;28;20252;-73
2022/09/19 07:08:34;;;;;;;2.57;1.00;;;22.20;35.60;;;;;;5033634;28;20661;-74
2022/09/19 07:11:01;;;;;;;4.13;0.83;;;21.90;36.30;;;;;;5031318;28;20191;-74
2022/09/19 07:13:29;;;;;;;5.40;0.90;;;22.40;36.00;;;;;;5026849;28;20290;-74
2022/09/19 07:16:02;;;;;;;2.57;1.10;;;22.30;36.20;;;;;;5025520;28;20276;-74
2022/09/19 07:18:30;;;;;;;3.87;0.80;;;22.30;36.60;;;;;;5032050;28;20275;-74
2022/09/19 07:21:00;;;;;;;4.13;1.10;;;22.30;37.00;;;;;;5032164;28;20176;-73
2022/09/19 07:23:28;;;;;;;6.03;1.10;;;21.40;38.30;;;;;;5030254;28;20191;-74
2022/09/19 07:25:56;;;;;;;3.33;0.80;;;20.50;40.40;;;;;;5030851;28;20188;-74
2022/09/19 07:28:24;;;;;;;3.63;1.00;;;19.90;40.90;;;;;;5029207;28;20230;-72
2022/09/19 07:30:51;;;;;;;2.70;0.80;;;19.60;41.90;;;;;;5032528;28;20188;-72
2022/09/19 07:33:25;;;;;;;3.00;0.83;;;19.20;42.30;;;;;;5032486;28;20215;-73
2022/09/19 07:35:55;;;;;;;1.27;1.00;;;19.20;41.80;;;;;;5031520;28;20250;-74
2022/09/19 07:38:24;;;;;;;5.13;3.47;;;19.20;41.80;;;;;;5027082;28;20185;-74
2022/09/19 07:40:53;;;;;;;5.60;2.63;;;19.20;42.00;;;;;;5031478;28;20188;-74
2022/09/19 07:43:21;;;;;;;5.10;3.33;;;18.90;42.20;;;;;;5031475;28;20286;-73
2022/09/19 07:45:50;;;;;;;20.57;17.27;;;18.80;42.60;;;;;;5030858;28;20184;-73
2022/09/19 07:48:19;;;;;;;6.70;3.30;;;18.60;42.80;;;;;;5021082;28;20552;-74
2022/09/19 07:50:50;;;;;;;3.03;1.13;;;18.50;43.50;;;;;;5031528;28;20235;-74
2022/09/19 07:53:22;;;;;;;1.73;0.90;;;18.60;43.30;;;;;;5019754;28;20256;-74
2022/09/19 07:55:52;;;;;;;2.77;1.00;;;18.30;43.70;;;;;;5028676;28;20172;-74
2022/09/19 07:58:20;;;;;;;1.07;0.80;;;18.30;44.60;;;;;;5028462;28;20634;-74
2022/09/19 08:00:49;;;;;;;2.50;1.00;;;18.20;45.30;;;;;;5029557;28;20184;-74
2022/09/19 08:03:19;;;;;;;3.50;0.70;;;18.10;45.40;;;;;;5030374;28;20192;-74
2022/09/19 08:05:49;;;;;;;2.73;1.00;;;18.00;45.80;;;;;;5029704;28;20192;-75
2022/09/19 08:08:18;;;;;;;3.23;0.90;;;17.90;46.10;;;;;;5028755;28;20184;-74
2022/09/19 08:10:46;;;;;;;1.97;1.10;;;17.80;46.40;;;;;;5030855;28;20211;-73
2022/09/19 08:13:16;;;;;;;4.47;1.50;;;17.80;47.10;;;;;;5031801;28;20570;-74
2022/09/19 08:15:45;;;;;;;2.90;1.40;;;17.80;47.20;;;;;;5032683;28;20211;-74
2022/09/19 08:18:18;;;;;;;4.20;1.60;;;17.80;47.50;;;;;;5026705;28;20185;-74
2022/09/19 08:20:46;;;;;;;4.47;2.70;;;17.80;47.60;;;;;;5030765;28;20189;-75
2022/09/19 08:23:16;;;;;;;5.43;2.27;;;17.80;47.80;;;;;;5030639;28;20674;-73
2022/09/19 08:25:46;;;;;;;4.13;1.20;;;17.70;48.20;;;;;;5023827;28;20180;-72
2022/09/19 08:28:16;;;;;;;4.43;1.80;;;17.60;47.90;;;;;;5031388;28;20192;-73
2022/09/19 08:30:45;;;;;;;3.50;1.83;;;17.60;48.70;;;;;;5032004;28;20185;-73
2022/09/19 08:33:13;;;;;;;2.80;1.10;;;17.60;48.90;;;;;;5032136;28;20664;-73
2022/09/19 08:35:41;;;;;;;5.30;2.10;;;17.70;49.20;;;;;;5031572;28;20181;-73
2022/09/19 08:38:10;;;;;;;8.00;2.43;;;17.60;49.20;;;;;;5031130;28;20180;-73
2022/09/19 08:40:43;;;;;;;6.67;1.60;;;17.50;49.50;;;;;;5031982;28;20212;-73
2022/09/19 08:43:46;;;;;;;4.70;1.67;;;17.40;50.20;;;;;;5028345;28;20180;-73
2022/09/19 08:46:44;;;;;;;6.37;1.60;;;17.30;50.30;;;;;;5027731;28;20554;-73
2022/09/19 08:49:27;;;;;;;3.70;1.63;;;17.30;50.10;;;;;;5029347;28;20647;-72
2022/09/19 08:52:06;;;;;;;6.03;2.10;;;17.30;50.60;;;;;;5027206;28;20256;-73
2022/09/19 08:54:36;;;;;;;6.60;1.93;;;17.20;51.00;;;;;;5024102;28;20272;-73
2022/09/19 08:57:05;;;;;;;4.20;1.47;;;17.20;50.80;;;;;;5031792;28;20224;-73
2022/09/19 08:59:39;;;;;;;8.43;1.50;;;17.10;51.40;;;;;;5031226;28;20181;-72
2022/09/19 09:02:43;;;;;;;8.73;2.57;;;17.10;51.70;;;;;;5030643;28;20698;-73
2022/09/19 09:05:34;;;;;;;5.90;1.63;;;17.10;51.80;;;;;;5029971;28;20218;-72
2022/09/19 09:08:25;;;;;;;5.27;1.40;;;17.00;51.90;;;;;;5030412;28;20233;-72
2022/09/19 09:11:22;;;;;;;3.13;1.40;;;16.90;52.30;;;;;;5031804;28;20223;-73
2022/09/19 09:14:07;;;;;;;5.53;1.57;;;16.80;52.90;;;;;;5029921;28;20194;-73
2022/09/19 09:17:21;;;;;;;5.73;2.07;;;16.80;52.70;;;;;;5024602;28;20314;-73
2022/09/19 09:20:04;;;;;;;4.00;1.60;;;16.80;53.10;;;;;;5017513;28;20265;-73
2022/09/19 09:23:04;;;;;;;3.47;1.80;;;16.80;53.00;;;;;;5032031;28;20185;-73
2022/09/19 09:25:33;;;;;;;4.13;1.77;;;16.70;53.50;;;;;;5028108;28;20347;-73
2022/09/19 09:28:16;;;;;;;3.83;2.20;;;16.60;53.40;;;;;;5032137;28;20241;-73
2022/09/19 09:30:47;;;;;;;4.70;2.07;;;16.50;54.00;;;;;;5032292;28;20746;-73
2022/09/19 09:33:37;;;;;;;5.03;2.10;;;16.40;54.80;;;;;;5031797;28;20205;-73
2022/09/19 09:36:15;;;;;;;6.87;2.47;;;16.40;55.00;;;;;;5030790;28;20185;-73
2022/09/19 09:39:02;;;;;;;6.70;2.27;;;16.30;55.00;;;;;;5027813;28;20179;-73
2022/09/19 09:41:47;;;;;;;4.00;1.90;;;16.30;55.10;;;;;;5027347;28;20238;-73
2022/09/19 09:44:20;;;;;;;4.80;2.13;;;16.20;55.80;;;;;;5028211;28;20185;-73
2022/09/19 09:46:54;;;;;;;4.43;2.07;;;16.20;56.30;;;;;;5030714;28;20169;-72
2022/09/19 09:49:22;;;;;;;5.33;2.30;;;16.20;56.40;;;;;;5031676;28;20195;-72
2022/09/19 09:52:17;;;;;;;4.77;2.43;;;16.20;56.90;;;;;;5035100;28;20204;-73
2022/09/19 09:58:11;;;;;;;7.03;2.20;;;16.10;57.80;;;;;;5035313;28;20192;-73
2022/09/19 10:03:36;;;;;;;5.43;2.40;;;16.00;57.70;;;;;;5025639;28;20219;-73
2022/09/19 10:06:23;;;;;;;6.00;2.43;;;15.90;58.00;;;;;;5033369;28;20226;-73
2022/09/19 10:09:30;;;;;;;8.80;2.73;;;15.90;58.60;;;;;;5035171;28;20187;-73
2022/09/19 10:12:07;;;;;;;4.83;2.80;;;15.80;59.30;;;;;;5033231;28;20746;-73
2022/09/19 10:14:38;;;;;;;7.93;2.60;;;15.70;60.20;;;;;;5034952;28;20180;-73
2022/09/19 10:17:07;;;;;;;9.03;3.47;;;15.70;60.50;;;;;;5034222;28;20552;-73
2022/09/19 10:19:45;;;;;;;7.50;2.77;;;15.70;60.20;;;;;;5033966;28;20191;-73
2022/09/19 10:22:15;;;;;;;7.63;3.00;;;15.70;60.00;;;;;;5033328;28;20192;-73
2022/09/19 10:24:55;;;;;;;6.50;2.80;;;15.70;60.00;;;;;;5034631;28;20307;-73
2022/09/19 10:27:26;;;;;;;13.23;3.53;;;15.70;60.60;;;;;;5027357;28;20270;-73
2022/09/19 10:30:01;;;;;;;8.13;3.40;;;15.60;61.00;;;;;;5030056;28;20210;-72
2022/09/19 10:32:36;;;;;;;11.33;3.20;;;15.50;61.90;;;;;;5033811;28;20224;-73
2022/09/19 10:35:33;;;;;;;9.27;3.30;;;15.40;62.20;;;;;;5033257;28;20187;-73
2022/09/19 10:38:14;;;;;;;7.57;3.77;;;15.30;62.90;;;;;;5033638;28;20306;-73
2022/09/19 10:40:56;;;;;;;12.90;3.87;;;15.30;62.90;;;;;;5033387;28;20194;-73
2022/09/19 10:43:48;;;;;;;11.70;3.90;;;15.30;63.30;;;;;;5033824;28;20198;-73
2022/09/19 10:46:23;;;;;;;8.07;4.27;;;15.30;63.30;;;;;;5001119;28;20191;-73
2022/09/19 10:48:56;;;;;;;7.03;3.97;;;15.30;63.20;;;;;;5033305;28;20657;-73
2022/09/19 10:51:38;;;;;;;10.00;3.93;;;15.20;64.30;;;;;;5027090;28;20187;-73
2022/09/19 10:54:31;;;;;;;10.63;4.20;;;15.20;64.60;;;;;;5032955;28;20264;-73
2022/09/19 10:56:59;;;;;;;7.53;3.93;;;15.10;65.10;;;;;;5027771;28;20224;-73
2022/09/19 10:59:39;;;;;;;8.77;3.80;;;15.00;65.00;;;;;;5033145;28;20678;-73
2022/09/19 11:02:22;;;;;;;10.67;4.10;;;15.00;65.50;;;;;;5032996;28;20180;-73
2022/09/19 11:05:22;;;;;;;10.80;4.37;;;14.90;65.50;;;;;;5032638;28;20246;-73
2022/09/19 11:07:56;;;;;;;9.10;4.53;;;14.90;65.00;;;;;;5031707;28;20236;-73
2022/09/19 11:10:41;;;;;;;8.37;4.07;;;14.90;64.60;;;;;;5033523;28;20646;-72
2022/09/19 11:13:23;;;;;;;8.07;4.00;;;15.00;64.30;;;;;;5031269;28;20272;-73
2022/09/19 11:15:58;;;;;;;9.73;3.50;;;15.00;65.10;;;;;;5023535;28;20204;-72
2022/09/19 11:18:37;;;;;;;7.73;3.50;;;15.00;65.60;;;;;;5031948;28;20634;-73
2022/09/19 11:21:16;;;;;;;9.50;3.67;;;14.80;65.50;;;;;;5029151;28;20190;-72
2022/09/19 11:23:57;;;;;;;6.93;3.23;;;14.80;65.90;;;;;;5031868;28;20246;-73
2022/09/19 11:26:59;;;;;;;6.63;3.30;;;14.80;65.70;;;;;;5023269;28;20196;-72
2022/09/19 11:30:13;;;;;;;5.03;2.70;;;14.80;65.30;;;;;;5022856;28;20202;-72
2022/09/19 11:33:10;;;;;;;5.67;3.23;;;14.80;65.60;;;;;;5004166;28;20234;-73
2022/09/19 11:36:10;;;;;;;7.67;2.57;;;14.80;65.60;;;;;;5026403;28;20180;-72
2022/09/19 11:38:47;;;;;;;9.60;3.60;;;14.80;66.00;;;;;;4997055;28;20203;-72
2022/09/19 11:41:55;;;;;;;5.10;2.87;;;14.80;66.30;;;;;;5030614;28;20524;-72
2022/09/19 11:44:52;;;;;;;6.93;2.90;;;14.80;66.10;;;;;;5018599;28;20655;-72
2022/09/19 11:48:01;;;;;;;7.43;2.70;;;14.70;66.70;;;;;;5023294;28;20278;-73
2022/09/19 11:50:39;;;;;;;4.87;2.63;;;14.70;66.80;;;;;;5031582;28;20181;-72
2022/09/19 11:53:13;;;;;;;5.17;2.70;;;14.70;66.50;;;;;;5031047;28;20242;-73
2022/09/19 11:56:13;;;;;;;6.53;2.90;;;14.80;66.30;;;;;;5023272;28;20177;-74
2022/09/19 11:58:58;;;;;;;6.40;2.73;;;14.80;66.60;;;;;;5020489;28;20823;-73
2022/09/19 12:01:40;;;;;;;8.43;2.90;;;14.80;66.60;;;;;;5026134;28;20194;-72
2022/09/19 12:04:18;;;;;;;5.43;2.60;;;14.70;66.40;;;;;;5025205;28;20184;-73
2022/09/19 12:07:10;;;;;;;6.20;2.93;;;14.60;66.60;;;;;;5029043;28;20224;-73
2022/09/19 12:09:44;;;;;;;6.07;2.30;;;14.70;67.00;;;;;;5029430;28;20186;-73
2022/09/19 12:12:21;;;;;;;5.80;2.67;;;14.70;66.90;;;;;;5029950;28;20710;-73
2022/09/19 12:14:55;;;;;;;10.37;2.80;;;14.70;66.90;;;;;;5028407;28;20623;-73
2022/09/19 12:17:32;;;;;;;4.20;2.60;;;14.70;66.20;;;;;;5031842;28;20523;-72
2022/09/19 12:20:27;;;;;;;6.33;2.33;;;14.70;65.50;;;;;;5025513;28;20246;-73
2022/09/19 12:26:18;;;;;;;5.87;2.27;;;14.70;63.70;;;;;;5033509;28;20195;-73
2022/09/19 12:28:58;;;;;;;4.37;1.90;;;14.50;62.10;;;;;;5032810;28;20581;-73
2022/09/19 12:31:33;;;;;;;3.03;1.60;;;14.50;59.30;;;;;;5030912;28;20212;-74
2022/09/19 12:34:29;;;;;;;6.23;1.80;;;14.50;57.40;;;;;;5028998;28;20646;-73
2022/09/19 12:37:10;;;;;;;3.07;1.70;;;14.60;55.30;;;;;;5016022;28;20187;-72
2022/09/19 12:40:07;;;;;;;3.20;1.73;;;14.70;53.90;;;;;;5027742;28;20180;-73
2022/09/19 12:42:47;;;;;;;2.57;1.70;;;14.70;53.10;;;;;;5030776;28;20551;-73
2022/09/19 12:45:30;;;;;;;1.77;1.30;;;14.70;53.10;;;;;;5027836;28;20173;-73
2022/09/19 12:48:27;;;;;;;3.03;1.50;;;14.60;51.90;;;;;;5022267;28;20184;-73
2022/09/19 12:50:58;;;;;;;3.97;1.50;;;14.50;51.40;;;;;;5027346;28;20195;-72
2022/09/19 12:53:45;;;;;;;1.20;1.10;;;14.50;49.80;;;;;;5022355;28;20199;-72
2022/09/19 12:56:21;;;;;;;2.07;1.30;;;14.50;49.70;;;;;;5020092;28;20187;-73
2022/09/19 12:58:53;;;;;;;1.90;1.20;;;14.60;48.90;;;;;;5031984;28;20176;-72
2022/09/19 13:01:34;;;;;;;1.77;1.37;;;14.60;49.00;;;;;;5032397;28;20207;-73
2022/09/19 13:04:29;;;;;;;1.67;1.30;;;14.60;50.10;;;;;;5025029;28;20230;-73
2022/09/19 13:07:09;;;;;;;3.00;1.47;;;14.50;50.30;;;;;;5026740;28;20228;-73
2022/09/19 13:10:17;;;;;;;1.80;1.30;;;14.30;49.90;;;;;;5032044;28;20177;-73
2022/09/19 13:13:04;;;;;;;3.43;1.20;;;14.30;50.90;;;;;;5032031;28;20281;-73
2022/09/19 13:15:36;;;;;;;1.43;1.27;;;14.20;51.30;;;;;;5032096;28;20197;-73
2022/09/19 13:23:45;;;;;;;3.37;1.60;;;13.90;52.00;;;;;;5019783;28;20230;-73
2022/09/19 13:26:24;;;;;;;6.17;4.67;;;13.90;52.40;;;;;;5028996;28;20230;-73
2022/09/19 13:28:56;;;;;;;3.33;2.33;;;13.80;52.70;;;;;;5035572;28;20657;-73
2022/09/19 13:31:58;;;;;;;2.17;1.53;;;13.80;53.70;;;;;;5035519;28;20173;-73
2022/09/19 13:34:41;;;;;;;2.20;1.30;;;13.80;54.10;;;;;;4996744;28;20733;-73
2022/09/19 13:37:33;;;;;;;2.10;1.40;;;13.70;53.80;;;;;;5033241;28;20177;-73
2022/09/19 13:40:24;;;;;;;2.63;1.27;;;13.70;53.50;;;;;;5035773;28;20259;-72
2022/09/19 13:42:51;;;;;;;2.70;1.30;;;13.60;54.00;;;;;;5035763;28;20177;-72
2022/09/19 13:45:45;;;;;;;1.80;1.37;;;13.50;54.20;;;;;;5034642;28;20637;-72
2022/09/19 13:48:36;;;;;;;1.70;1.20;;;13.50;53.40;;;;;;5035854;28;20191;-73